Terminal Aerodrome Forecast
Issued by NWS

Home | Current Version | Previous Version | Graphics & Text | Print | Product List | Glossary Off
Versions: 1 2 3 4 5 6 7 8 9 10 11 12 13 14 15 16 17 18

078
FTUS43 KICT 170542
TAFCNU
TAF
KCNU 170542Z 1706/1806 28008KT P6SM OVC015
     FM170800 30010KT P6SM OVC009
     FM171700 30005KT P6SM OVC015
     FM171900 30005KT P6SM OVC025
     FM172000 29005KT P6SM BKN040=

USA.gov is the U.S. government's official web portal to all federal, state and local government web resources and services.